Latest Weather Observations for Adelaide

IDS60801

Issued at 6:31 pm CST Monday 24 April 2017 (issued every 30 minutes, with the page automatically refreshed every 10 minutes)

About weather observations | Map of weather stations | Latest weather observations for SA | Other Formats
Station Details ID: 023090 Name: KENT TOWN Lat: -34.92 Lon: 138.62 Height: 48.0 m
Data from the previous 72 hours. | See also: Recent months at Adelaide
Date/Time
CST
Temp
°C
App
Temp
°C
Dew
Point
°C
Rel
Hum
%
Delta-T
°C
Wind Press
QNH
hPa
Press
MSL
hPa
Rain since
9am
mm
Dir  Spd
km/h
Gust
km/h
Spd
kts
Gust
kts
24/06:30pm 17.0 17.7 16.0 94 0.6 NW 7 11 4 6 1014.1 1014.0 6.6
24/06:00pm 18.1 18.7 16.9 93 0.7 WNW 9 19 5 10 1013.9 1013.8 5.8
24/05:30pm 18.4 19.0 16.9 91 0.9 NW 9 17 5 9 1013.8 1013.7 5.8
24/05:00pm 18.7 20.2 17.6 93 0.7 NW 6 11 3 6 1013.7 1013.6 5.6
24/04:30pm 18.5 19.8 17.5 94 0.6 NW 7 11 4 6 1013.9 1013.8 5.6
24/04:00pm 18.2 19.0 17.2 94 0.6 WNW 9 15 5 8 1013.9 1013.8 5.6
24/03:30pm 19.6 20.3 17.0 85 1.6 NW 9 17 5 9 1014.3 1014.2 0.0
24/03:00pm 20.0 20.5 16.5 80 2.1 NW 9 19 5 10 1014.3 1014.2 0.0
24/02:30pm 20.3 20.5 16.8 80 2.1 WNW 11 20 6 11 1014.2 1014.1 0.0
24/02:00pm 20.1 20.9 17.2 83 1.8 NNW 9 17 5 9 1014.3 1014.2 0.0
24/01:30pm 19.7 20.0 16.9 84 1.7 NNW 11 17 6 9 1014.8 1014.7 0.0
24/01:00pm 19.5 20.1 16.9 85 1.6 N 9 13 5 7 1014.8 1014.7 0.0
24/12:30pm 19.8 20.4 16.7 82 1.9 NNW 9 17 5 9 1015.8 1015.7 0.0
24/12:00pm 19.5 19.9 16.3 82 1.9 NNW 9 15 5 8 1016.3 1016.2 0.0
24/11:30am 19.0 18.6 16.2 84 1.7 N 13 19 7 10 1017.0 1016.9 0.0
24/11:00am 19.5 19.8 16.0 80 2.1 N 9 15 5 8 1017.3 1017.2 0.0
24/10:30am 19.0 20.3 16.2 84 1.7 NE 4 9 2 5 1017.2 1017.1 0.0
24/10:00am 18.4 19.6 16.0 86 1.4 NNE 4 7 2 4 1017.3 1017.2 0.0
24/09:30am 18.0 19.5 15.6 86 1.4 NNE 2 7 1 4 1017.7 1017.6 0.0
24/09:00am 17.8 19.5 16.1 90 1.0 E 2 6 1 3 1017.9 1017.8 3.4
24/08:30am 17.0 18.9 15.8 93 0.7 CALM 0 6 0 3 1018.0 1017.9 3.4
24/08:00am 16.6 18.4 15.6 94 0.6 CALM 0 0 0 0 1018.0 1017.9 3.4
24/07:30am 16.1 17.8 15.2 94 0.5 CALM 0 0 0 0 1017.7 1017.6 3.4
24/07:00am 15.7 17.3 15.0 96 0.4 CALM 0 0 0 0 1017.7 1017.6 3.4
24/06:30am 15.5 17.0 14.6 94 0.5 CALM 0 0 0 0 1017.5 1017.4 3.4
24/06:00am 15.5 17.1 14.8 96 0.4 CALM 0 0 0 0 1017.3 1017.2 3.4
24/05:30am 15.6 17.2 14.9 96 0.4 CALM 0 6 0 3 1017.8 1017.7 3.4
24/05:00am 15.8 17.0 14.9 94 0.5 S 2 6 1 3 1018.1 1018.0 3.4
24/04:30am 16.1 17.8 15.2 94 0.5 CALM 0 0 0 0 1018.0 1017.9 3.4
24/04:00am 16.3 17.7 15.4 94 0.5 S 2 6 1 3 1018.0 1017.9 3.4
24/03:30am 16.6 17.6 15.4 93 0.7 SSW 4 9 2 5 1018.3 1018.2 3.4
24/03:00am 16.8 18.5 15.3 91 0.9 CALM 0 9 0 5 1018.9 1018.9 3.4
24/02:30am 17.0 17.5 15.1 88 1.1 NNE 6 9 3 5 1019.2 1019.2 3.2
24/02:00am 17.0 18.9 15.8 93 0.7 CALM 0 0 0 0 1019.6 1019.6 2.8
24/01:30am 16.9 18.2 15.2 90 1.0 SE 2 7 1 4 1020.0 1020.0 2.8
24/01:00am 17.5 18.4 16.0 91 0.9 S 6 9 3 5 1020.7 1020.6 2.8
24/12:30am 18.0 19.8 15.6 86 1.4 CALM 0 0 0 0 1020.9 1020.8 0.6
24/12:00am 19.7 20.2 14.0 69 3.3 E 4 13 2 7 1020.5 1020.4 0.2
 
Date/Time
CST
Temp
°C
App
Temp
°C
Dew
Point
°C
Rel
Hum
%
Delta-T
°C
Wind Press
QNH
hPa
Press
MSL
hPa
Rain since
9am
mm
Dir  Spd
km/h
Gust
km/h
Spd
kts
Gust
kts
23/11:30pm 20.8 20.4 11.2 54 5.3 NNE 4 11 2 6 1020.5 1020.4 0.0
23/11:00pm 20.7 20.4 11.5 55 5.1 NE 4 11 2 6 1020.4 1020.3 0.0
23/10:30pm 20.6 20.9 12.2 58 4.7 WNW 2 9 1 5 1020.6 1020.5 0.0
23/10:00pm 20.9 20.4 11.9 56 5.0 ESE 6 11 3 6 1020.8 1020.7 0.0
23/09:30pm 21.1 20.3 11.8 55 5.2 SE 7 15 4 8 1021.0 1020.9 0.0
23/09:00pm 20.8 21.7 12.9 60 4.5 CALM 0 0 0 0 1021.1 1021.0 0.0
23/08:30pm 21.0 20.9 12.1 56 5.0 E 4 9 2 5 1021.1 1021.0 0.0
23/08:00pm 21.1 22.0 12.8 59 4.7 CALM 0 6 0 3 1021.2 1021.1 0.0
23/07:30pm 21.5 22.4 12.9 58 4.9 CALM 0 2 0 1 1021.1 1021.0 0.0
23/07:00pm 21.8 21.5 12.8 56 5.1 ENE 6 9 3 5 1021.0 1020.9 0.0
23/06:30pm 22.0 22.2 12.9 56 5.2 ENE 4 9 2 5 1020.7 1020.6 0.0
23/06:00pm 22.2 22.0 12.9 55 5.3 E 6 15 3 8 1020.5 1020.4 0.0
23/05:30pm 22.4 23.0 13.0 55 5.4 NE 2 9 1 5 1020.6 1020.5 0.0
23/05:00pm 22.7 22.3 13.1 54 5.5 E 7 13 4 7 1020.5 1020.4 0.0
23/04:30pm 22.8 22.4 13.1 54 5.6 ESE 7 15 4 8 1020.6 1020.5 0.0
23/04:00pm 23.1 22.6 12.8 52 5.9 E 7 13 4 7 1020.6 1020.5 0.0
23/03:30pm 23.1 22.7 13.0 53 5.8 ESE 7 13 4 7 1020.6 1020.5 0.0
23/03:00pm 23.2 23.1 13.8 55 5.5 SSW 7 15 4 8 1020.6 1020.5 0.0
23/02:30pm 22.9 22.4 13.8 56 5.3 SSW 9 11 5 6 1020.7 1020.6 0.0
23/02:00pm 22.8 22.2 13.5 55 5.4 SSW 9 13 5 7 1020.9 1020.8 0.0
23/01:30pm 22.7 22.3 14.0 58 5.1 SW 9 13 5 7 1021.0 1020.9 0.0
23/01:00pm 23.5 23.6 12.7 50 6.2 NE 4 11 2 6 1021.3 1021.2 0.0
23/12:30pm 23.4 22.4 12.3 49 6.3 E 9 17 5 9 1021.7 1021.6 0.0
23/12:00pm 23.7 23.2 12.1 48 6.6 ENE 6 13 3 7 1022.0 1021.9 0.0
23/11:30am 24.0 23.4 12.2 47 6.7 ESE 7 15 4 8 1022.3 1022.2 0.0
23/11:00am 24.3 23.7 12.2 46 6.9 E 7 15 4 8 1022.7 1022.6 0.0
23/10:30am 23.5 22.7 11.8 47 6.6 NE 7 15 4 8 1023.0 1022.9 0.0
23/10:00am 22.0 20.7 11.4 51 5.9 E 9 17 5 9 1023.2 1023.1 0.0
23/09:30am 21.1 20.5 11.8 55 5.2 ENE 6 11 3 6 1023.5 1023.4 0.0
23/09:00am 20.0 19.8 13.7 67 3.6 E 7 11 4 6 1023.6 1023.5 0.0
23/08:30am 19.4 19.4 14.2 72 3.0 SW 7 11 4 6 1023.7 1023.6 0.0
23/08:00am 17.7 18.5 13.8 78 2.2 S 2 9 1 5 1023.5 1023.4 0.0
23/07:30am 17.2 18.2 13.1 77 2.3 CALM 0 0 0 0 1023.2 1023.1 0.0
23/07:00am 16.8 17.0 12.0 73 2.6 W 2 7 1 4 1022.9 1022.8 0.0
23/06:30am 16.7 15.4 11.3 70 2.9 WSW 9 13 5 7 1022.6 1022.5 0.0
23/06:00am 16.3 16.9 11.9 75 2.4 CALM 0 0 0 0 1022.1 1022.0 0.0
23/05:30am 16.5 17.1 11.9 74 2.5 CALM 0 0 0 0 1022.0 1021.9 0.0
23/05:00am 15.8 16.1 12.1 78 2.0 S 2 9 1 5 1021.8 1021.7 0.0
23/04:30am 16.2 17.0 12.6 79 2.0 CALM 0 0 0 0 1021.8 1021.7 0.0
23/04:00am 16.6 16.6 12.4 76 2.3 NW 4 9 2 5 1021.8 1021.7 0.0
23/03:30am 16.4 16.5 12.6 78 2.1 NW 4 7 2 4 1021.7 1021.6 0.0
23/03:00am 16.7 17.5 12.7 77 2.2 CALM 0 0 0 0 1021.7 1021.6 0.0
23/02:30am 17.0 17.5 12.9 77 2.3 NW 2 6 1 3 1022.1 1022.0 0.0
23/02:00am 17.3 18.1 12.6 74 2.6 CALM 0 4 0 2 1022.3 1022.2 0.0
23/01:30am 17.2 18.2 13.1 77 2.3 CALM 0 0 0 0 1022.5 1022.4 0.0
23/01:00am 17.8 17.8 12.4 70 3.0 S 4 9 2 5 1022.6 1022.5 0.0
23/12:30am 18.2 17.7 12.0 67 3.4 SE 6 13 3 7 1022.6 1022.5 0.0
23/12:00am 18.1 17.9 11.9 67 3.4 ESE 4 11 2 6 1022.9 1022.8 0.0
 
Date/Time
CST
Temp
°C
App
Temp
°C
Dew
Point
°C
Rel
Hum
%
Delta-T
°C
Wind Press
QNH
hPa
Press
MSL
hPa
Rain since
9am
mm
Dir  Spd
km/h
Gust
km/h
Spd
kts
Gust
kts
22/11:30pm 18.0 17.9 12.0 68 3.3 SE 4 11 2 6 1022.9 1022.8 0.0
22/11:00pm 18.0 17.5 12.0 68 3.3 SSE 6 11 3 6 1023.0 1022.9 0.0
22/10:30pm 18.3 17.6 12.1 67 3.4 ESE 7 9 4 5 1023.2 1023.1 0.0
22/10:00pm 18.4 18.0 12.5 68 3.3 E 6 11 3 6 1023.1 1023.0 0.0
22/09:30pm 18.5 18.0 12.6 68 3.3 SE 7 13 4 7 1023.2 1023.1 0.0
22/09:00pm 18.5 18.0 12.8 69 3.2 E 7 13 4 7 1023.0 1022.9 0.0
22/08:30pm 18.7 18.3 13.0 69 3.2 ESE 7 13 4 7 1023.0 1022.9 0.0
22/08:00pm 18.5 19.5 13.2 71 3.0 CALM 0 7 0 4 1022.8 1022.7 0.0
22/07:30pm 18.6 19.2 13.1 70 3.1 SW 2 7 1 4 1022.5 1022.4 0.0
22/07:00pm 19.2 19.6 12.4 64 3.8 ENE 2 7 1 4 1022.4 1022.3 0.0
22/06:30pm 19.7 18.7 12.4 62 4.1 ESE 9 20 5 11 1022.1 1022.0 0.0
22/06:00pm 20.3 20.0 12.7 61 4.3 ESE 6 13 3 7 1021.8 1021.7 0.0
22/05:30pm 21.0 20.2 12.9 60 4.6 ESE 9 17 5 9 1021.5 1021.4 0.0
22/05:00pm 21.9 21.2 13.2 57 5.0 ESE 9 17 5 9 1021.5 1021.4 0.0
22/04:30pm 22.7 22.0 13.1 54 5.5 ESE 9 15 5 8 1021.5 1021.4 0.0
22/04:00pm 22.8 22.3 12.8 53 5.7 SSW 7 11 4 6 1021.5 1021.4 0.0
22/03:30pm 22.7 21.8 12.5 52 5.8 SSW 9 13 5 7 1021.4 1021.3 0.0
22/03:00pm 22.6 21.5 11.9 50 6.0 SW 9 13 5 7 1021.5 1021.4 0.0
22/02:30pm 23.5 21.8 11.3 46 6.8 SW 11 17 6 9 1021.6 1021.5 0.0
22/02:00pm 23.1 21.2 11.7 48 6.4 WSW 13 17 7 9 1021.8 1021.7 0.0
22/01:30pm 22.9 20.6 11.9 50 6.2 WSW 15 19 8 10 1022.0 1021.9 0.0
22/01:00pm 23.6 22.0 10.3 43 7.3 W 9 20 5 11 1022.2 1022.1 0.0
22/12:30pm 23.6 22.0 10.3 43 7.3 WSW 9 13 5 7 1022.6 1022.5 0.0
22/12:00pm 23.3 22.0 11.3 46 6.7 W 9 15 5 8 1023.0 1022.9 0.0
22/11:30am 23.2 22.4 9.7 42 7.3 NW 4 9 2 5 1023.4 1023.3 0.0
22/11:00am 21.9 21.4 9.4 45 6.7 ESE 2 7 1 4 1023.8 1023.7 0.0
22/10:30am 21.4 21.6 11.7 54 5.4 NNE 2 7 1 4 1024.0 1023.9 0.0
22/10:00am 20.4 20.2 11.9 58 4.7 ENE 4 7 2 4 1024.2 1024.1 0.0
22/09:30am 19.2 19.6 12.6 65 3.7 N 2 7 1 4 1024.4 1024.3 0.0
22/09:00am 18.3 18.6 12.1 67 3.4 N 2 6 1 3 1024.3 1024.2 0.2
22/08:30am 16.6 17.4 12.6 77 2.2 CALM 0 0 0 0 1024.2 1024.1 0.2
22/08:00am 13.5 14.1 11.8 89 0.9 CALM 0 0 0 0 1024.0 1023.9 0.2
22/07:30am 12.7 13.1 11.4 92 0.7 CALM 0 0 0 0 1023.8 1023.7 0.2
22/07:00am 12.2 12.6 11.1 93 0.6 CALM 0 0 0 0 1023.4 1023.3 0.2
22/06:30am 11.8 12.1 10.8 94 0.5 CALM 0 0 0 0 1023.3 1023.2 0.2
22/06:00am 11.4 11.6 10.6 95 0.4 CALM 0 0 0 0 1023.1 1023.0 0.2
22/05:30am 11.4 11.6 10.4 94 0.5 CALM 0 0 0 0 1022.9 1022.8 0.2
22/05:00am 11.5 11.7 10.5 94 0.5 CALM 0 0 0 0 1022.8 1022.7 0.2
22/04:30am 11.8 12.0 10.6 92 0.6 CALM 0 0 0 0 1022.6 1022.5 0.2
22/04:00am 12.3 12.7 11.2 93 0.6 CALM 0 0 0 0 1022.6 1022.5 0.2
22/03:30am 12.2 12.6 11.2 94 0.5 CALM 0 0 0 0 1022.5 1022.4 0.2
22/03:00am 12.7 13.2 11.6 93 0.6 CALM 0 0 0 0 1022.6 1022.5 0.2
22/02:30am 13.0 13.2 11.7 92 0.7 N 2 7 1 4 1022.8 1022.7 0.2
22/02:00am 13.1 13.7 12.0 93 0.6 CALM 0 0 0 0 1022.7 1022.6 0.2
22/01:30am 13.2 13.9 12.1 93 0.6 CALM 0 0 0 0 1022.8 1022.7 0.2
22/01:00am 13.4 14.1 12.1 92 0.7 CALM 0 0 0 0 1022.8 1022.7 0.2
22/12:30am 13.9 13.9 12.4 91 0.8 E 4 6 2 3 1023.0 1022.9 0.2
22/12:00am 13.8 14.6 12.5 92 0.7 CALM 0 0 0 0 1023.1 1023.0 0.2
 
Date/Time
CST
Temp
°C
App
Temp
°C
Dew
Point
°C
Rel
Hum
%
Delta-T
°C
Wind Press
QNH
hPa
Press
MSL
hPa
Rain since
9am
mm
Dir  Spd
km/h
Gust
km/h
Spd
kts
Gust
kts
21/11:30pm 13.9 14.7 12.4 91 0.8 CALM 0 0 0 0 1023.0 1022.9 0.2
21/11:00pm 14.3 15.1 12.5 89 1.0 CALM 0 0 0 0 1023.3 1023.2 0.2
21/10:30pm 14.1 14.9 12.6 91 0.8 CALM 0 0 0 0 1023.4 1023.3 0.2
21/10:00pm 14.4 15.2 12.6 89 1.0 CALM 0 0 0 0 1023.4 1023.3 0.2
21/09:30pm 14.7 15.5 12.5 87 1.2 CALM 0 0 0 0 1023.3 1023.2 0.2
21/09:00pm 15.2 16.0 12.6 84 1.4 CALM 0 0 0 0 1023.1 1023.0 0.2
21/08:30pm 15.4 16.2 12.5 83 1.6 CALM 0 0 0 0 1022.9 1022.8 0.2
21/08:00pm 16.0 16.8 12.5 80 1.9 CALM 0 0 0 0 1022.7 1022.6 0.2
21/07:30pm 16.4 16.8 12.6 78 2.1 SSW 2 7 1 4 1022.5 1022.4 0.2
21/07:00pm 16.9 17.7 12.4 75 2.5 CALM 0 6 0 3 1022.2 1022.1 0.2

Other Formats:

Comma delimited format used in spreadsheet applications
http://www.bom.gov.au/fwo/IDS60801/IDS60801.94675.axf

JavaScript Object Notation format (JSON) in row-major order
http://www.bom.gov.au/fwo/IDS60801/IDS60801.94675.json